sensor_id;sensor_type;location;lat;lon;timestamp;P1;durP1;ratioP1;P2;durP2;ratioP2
23519;SDS011;11936;50.820;4.336;2023-11-19T00:00:36;4.15;;;2.20;;
23519;SDS011;11936;50.820;4.336;2023-11-19T00:03:01;9.02;;;2.67;;
23519;SDS011;11936;50.820;4.336;2023-11-19T00:05:28;4.13;;;1.98;;
23519;SDS011;11936;50.820;4.336;2023-11-19T00:07:54;6.78;;;2.45;;
23519;SDS011;11936;50.820;4.336;2023-11-19T00:10:19;4.05;;;1.98;;
23519;SDS011;11936;50.820;4.336;2023-11-19T00:12:49;6.07;;;2.47;;
23519;SDS011;11936;50.820;4.336;2023-11-19T00:15:15;5.50;;;1.88;;
23519;SDS011;11936;50.820;4.336;2023-11-19T00:17:44;6.63;;;2.55;;
23519;SDS011;11936;50.820;4.336;2023-11-19T00:20:17;9.50;;;2.47;;
23519;SDS011;11936;50.820;4.336;2023-11-19T00:22:44;5.32;;;1.92;;
23519;SDS011;11936;50.820;4.336;2023-11-19T00:25:13;10.18;;;2.35;;
23519;SDS011;11936;50.820;4.336;2023-11-19T00:27:39;10.55;;;2.65;;
23519;SDS011;11936;50.820;4.336;2023-11-19T00:30:05;9.63;;;2.20;;
23519;SDS011;11936;50.820;4.336;2023-11-19T00:32:32;8.18;;;2.22;;
23519;SDS011;11936;50.820;4.336;2023-11-19T00:34:58;6.80;;;2.45;;
23519;SDS011;11936;50.820;4.336;2023-11-19T00:37:23;8.20;;;2.58;;
23519;SDS011;11936;50.820;4.336;2023-11-19T00:39:49;9.93;;;2.38;;
23519;SDS011;11936;50.820;4.336;2023-11-19T00:42:14;7.35;;;2.17;;
23519;SDS011;11936;50.820;4.336;2023-11-19T00:44:40;6.13;;;1.92;;
23519;SDS011;11936;50.820;4.336;2023-11-19T00:47:06;6.82;;;2.08;;
23519;SDS011;11936;50.820;4.336;2023-11-19T00:49:32;10.50;;;2.42;;
23519;SDS011;11936;50.820;4.336;2023-11-19T00:51:58;8.18;;;2.13;;
23519;SDS011;11936;50.820;4.336;2023-11-19T00:54:24;8.35;;;1.90;;
23519;SDS011;11936;50.820;4.336;2023-11-19T00:59:19;19.40;;;2.50;;
23519;SDS011;11936;50.820;4.336;2023-11-19T01:01:44;9.15;;;2.40;;
23519;SDS011;11936;50.820;4.336;2023-11-19T01:04:12;5.60;;;2.88;;
23519;SDS011;11936;50.820;4.336;2023-11-19T01:06:38;7.28;;;2.63;;
23519;SDS011;11936;50.820;4.336;2023-11-19T01:09:04;5.25;;;1.75;;
23519;SDS011;11936;50.820;4.336;2023-11-19T01:11:30;7.32;;;2.13;;
23519;SDS011;11936;50.820;4.336;2023-11-19T01:13:55;9.55;;;2.28;;
23519;SDS011;11936;50.820;4.336;2023-11-19T01:16:21;10.95;;;2.15;;
23519;SDS011;11936;50.820;4.336;2023-11-19T01:18:47;10.40;;;2.42;;
23519;SDS011;11936;50.820;4.336;2023-11-19T01:21:14;8.18;;;2.40;;
23519;SDS011;11936;50.820;4.336;2023-11-19T01:23:40;9.48;;;2.58;;
23519;SDS011;11936;50.820;4.336;2023-11-19T01:26:09;10.88;;;2.47;;
23519;SDS011;11936;50.820;4.336;2023-11-19T01:28:36;19.63;;;5.32;;
23519;SDS011;11936;50.820;4.336;2023-11-19T01:31:01;11.65;;;3.03;;
23519;SDS011;11936;50.820;4.336;2023-11-19T01:33:28;17.55;;;2.88;;
23519;SDS011;11936;50.820;4.336;2023-11-19T01:35:54;11.10;;;2.53;;
23519;SDS011;11936;50.820;4.336;2023-11-19T01:38:21;11.95;;;2.53;;
23519;SDS011;11936;50.820;4.336;2023-11-19T01:40:46;11.82;;;2.92;;
23519;SDS011;11936;50.820;4.336;2023-11-19T01:46:04;16.10;;;2.95;;
23519;SDS011;11936;50.820;4.336;2023-11-19T01:48:31;13.40;;;2.85;;
23519;SDS011;11936;50.820;4.336;2023-11-19T01:50:59;15.02;;;2.80;;
23519;SDS011;11936;50.820;4.336;2023-11-19T01:53:27;12.45;;;2.67;;
23519;SDS011;11936;50.820;4.336;2023-11-19T01:55:52;18.80;;;2.88;;
23519;SDS011;11936;50.820;4.336;2023-11-19T01:58:18;13.48;;;3.05;;
23519;SDS011;11936;50.820;4.336;2023-11-19T02:00:45;10.95;;;3.00;;
23519;SDS011;11936;50.820;4.336;2023-11-19T02:03:11;15.15;;;3.17;;
23519;SDS011;11936;50.820;4.336;2023-11-19T02:05:37;12.18;;;2.97;;
23519;SDS011;11936;50.820;4.336;2023-11-19T02:08:04;19.50;;;3.35;;
23519;SDS011;11936;50.820;4.336;2023-11-19T02:10:30;17.95;;;3.20;;
23519;SDS011;11936;50.820;4.336;2023-11-19T02:12:57;11.65;;;2.90;;
23519;SDS011;11936;50.820;4.336;2023-11-19T02:15:23;10.63;;;3.03;;
23519;SDS011;11936;50.820;4.336;2023-11-19T02:17:51;15.43;;;2.92;;
23519;SDS011;11936;50.820;4.336;2023-11-19T02:20:17;11.68;;;3.13;;
23519;SDS011;11936;50.820;4.336;2023-11-19T02:22:45;15.68;;;2.92;;
23519;SDS011;11936;50.820;4.336;2023-11-19T02:25:25;18.58;;;3.38;;
23519;SDS011;11936;50.820;4.336;2023-11-19T02:28:00;19.02;;;3.45;;
23519;SDS011;11936;50.820;4.336;2023-11-19T02:30:27;14.70;;;3.58;;
23519;SDS011;11936;50.820;4.336;2023-11-19T02:32:54;10.68;;;2.85;;
23519;SDS011;11936;50.820;4.336;2023-11-19T02:35:22;13.05;;;3.55;;
23519;SDS011;11936;50.820;4.336;2023-11-19T02:37:48;16.15;;;2.70;;
23519;SDS011;11936;50.820;4.336;2023-11-19T02:40:14;11.90;;;2.90;;
23519;SDS011;11936;50.820;4.336;2023-11-19T02:42:39;15.98;;;3.38;;
23519;SDS011;11936;50.820;4.336;2023-11-19T02:45:05;16.52;;;3.22;;
23519;SDS011;11936;50.820;4.336;2023-11-19T02:47:32;12.85;;;2.88;;
23519;SDS011;11936;50.820;4.336;2023-11-19T02:49:58;15.65;;;2.80;;
23519;SDS011;11936;50.820;4.336;2023-11-19T02:52:24;22.23;;;3.50;;
23519;SDS011;11936;50.820;4.336;2023-11-19T02:54:50;9.40;;;2.85;;
23519;SDS011;11936;50.820;4.336;2023-11-19T02:57:16;17.35;;;3.10;;
23519;SDS011;11936;50.820;4.336;2023-11-19T02:59:44;13.02;;;3.10;;
23519;SDS011;11936;50.820;4.336;2023-11-19T03:02:10;16.05;;;3.53;;
23519;SDS011;11936;50.820;4.336;2023-11-19T03:04:36;11.48;;;2.95;;
23519;SDS011;11936;50.820;4.336;2023-11-19T03:07:06;18.63;;;3.13;;
23519;SDS011;11936;50.820;4.336;2023-11-19T03:09:32;17.27;;;2.97;;
23519;SDS011;11936;50.820;4.336;2023-11-19T03:12:00;11.45;;;2.63;;
23519;SDS011;11936;50.820;4.336;2023-11-19T03:14:25;11.68;;;2.70;;
23519;SDS011;11936;50.820;4.336;2023-11-19T03:16:51;13.50;;;3.30;;
23519;SDS011;11936;50.820;4.336;2023-11-19T03:19:17;11.82;;;2.75;;
23519;SDS011;11936;50.820;4.336;2023-11-19T03:21:42;8.77;;;2.80;;
23519;SDS011;11936;50.820;4.336;2023-11-19T03:24:09;23.40;;;3.72;;
23519;SDS011;11936;50.820;4.336;2023-11-19T03:26:35;11.13;;;3.47;;
23519;SDS011;11936;50.820;4.336;2023-11-19T03:29:02;14.75;;;2.95;;
23519;SDS011;11936;50.820;4.336;2023-11-19T03:31:28;19.50;;;3.72;;
23519;SDS011;11936;50.820;4.336;2023-11-19T03:33:53;19.85;;;3.63;;
23519;SDS011;11936;50.820;4.336;2023-11-19T03:36:19;19.65;;;3.22;;
23519;SDS011;11936;50.820;4.336;2023-11-19T03:38:45;14.20;;;3.35;;
23519;SDS011;11936;50.820;4.336;2023-11-19T03:41:13;14.90;;;3.20;;
23519;SDS011;11936;50.820;4.336;2023-11-19T03:43:40;16.35;;;3.25;;
23519;SDS011;11936;50.820;4.336;2023-11-19T03:46:18;13.00;;;2.70;;
23519;SDS011;11936;50.820;4.336;2023-11-19T03:48:44;17.88;;;4.40;;
23519;SDS011;11936;50.820;4.336;2023-11-19T03:51:11;12.02;;;3.00;;
23519;SDS011;11936;50.820;4.336;2023-11-19T03:53:43;18.40;;;3.53;;
23519;SDS011;11936;50.820;4.336;2023-11-19T03:56:10;13.55;;;2.83;;
23519;SDS011;11936;50.820;4.336;2023-11-19T03:58:36;19.95;;;4.07;;
23519;SDS011;11936;50.820;4.336;2023-11-19T04:01:03;17.85;;;3.83;;
23519;SDS011;11936;50.820;4.336;2023-11-19T04:03:41;23.73;;;4.57;;
23519;SDS011;11936;50.820;4.336;2023-11-19T04:06:06;15.05;;;3.75;;
23519;SDS011;11936;50.820;4.336;2023-11-19T04:08:32;14.35;;;3.15;;
23519;SDS011;11936;50.820;4.336;2023-11-19T04:10:58;15.50;;;3.53;;
23519;SDS011;11936;50.820;4.336;2023-11-19T04:13:23;23.15;;;3.72;;
23519;SDS011;11936;50.820;4.336;2023-11-19T04:15:49;19.10;;;3.38;;
23519;SDS011;11936;50.820;4.336;2023-11-19T04:18:15;22.58;;;3.55;;
23519;SDS011;11936;50.820;4.336;2023-11-19T04:20:41;26.98;;;4.43;;
23519;SDS011;11936;50.820;4.336;2023-11-19T04:23:07;23.38;;;4.53;;
23519;SDS011;11936;50.820;4.336;2023-11-19T04:25:34;18.67;;;3.33;;
23519;SDS011;11936;50.820;4.336;2023-11-19T04:28:00;15.20;;;3.95;;
23519;SDS011;11936;50.820;4.336;2023-11-19T04:30:26;16.25;;;3.70;;
23519;SDS011;11936;50.820;4.336;2023-11-19T04:32:51;27.42;;;4.50;;
23519;SDS011;11936;50.820;4.336;2023-11-19T04:35:17;30.25;;;4.60;;
23519;SDS011;11936;50.820;4.336;2023-11-19T04:37:44;23.23;;;4.03;;
23519;SDS011;11936;50.820;4.336;2023-11-19T04:40:09;30.90;;;4.68;;
23519;SDS011;11936;50.820;4.336;2023-11-19T04:42:36;22.15;;;3.60;;
23519;SDS011;11936;50.820;4.336;2023-11-19T04:45:05;20.92;;;4.45;;
23519;SDS011;11936;50.820;4.336;2023-11-19T04:47:31;23.80;;;4.72;;
23519;SDS011;11936;50.820;4.336;2023-11-19T04:50:00;21.35;;;4.70;;
23519;SDS011;11936;50.820;4.336;2023-11-19T04:52:26;20.05;;;4.40;;
23519;SDS011;11936;50.820;4.336;2023-11-19T04:54:51;17.63;;;4.07;;
23519;SDS011;11936;50.820;4.336;2023-11-19T04:57:17;20.95;;;3.90;;
23519;SDS011;11936;50.820;4.336;2023-11-19T04:59:43;22.88;;;4.43;;
23519;SDS011;11936;50.820;4.336;2023-11-19T05:02:08;22.45;;;3.90;;
23519;SDS011;11936;50.820;4.336;2023-11-19T05:04:34;19.60;;;4.03;;
23519;SDS011;11936;50.820;4.336;2023-11-19T05:07:00;19.48;;;3.75;;
23519;SDS011;11936;50.820;4.336;2023-11-19T05:09:25;18.92;;;3.67;;
23519;SDS011;11936;50.820;4.336;2023-11-19T05:11:51;26.33;;;4.07;;
23519;SDS011;11936;50.820;4.336;2023-11-19T05:14:17;18.63;;;4.10;;
23519;SDS011;11936;50.820;4.336;2023-11-19T05:16:45;15.75;;;4.53;;
23519;SDS011;11936;50.820;4.336;2023-11-19T05:19:11;12.05;;;4.13;;
23519;SDS011;11936;50.820;4.336;2023-11-19T05:21:41;25.50;;;4.13;;
23519;SDS011;11936;50.820;4.336;2023-11-19T05:24:07;21.33;;;3.83;;
23519;SDS011;11936;50.820;4.336;2023-11-19T05:26:33;20.35;;;4.45;;
23519;SDS011;11936;50.820;4.336;2023-11-19T05:28:58;27.95;;;4.57;;
23519;SDS011;11936;50.820;4.336;2023-11-19T05:31:24;19.90;;;4.82;;
23519;SDS011;11936;50.820;4.336;2023-11-19T05:33:50;26.77;;;5.18;;
23519;SDS011;11936;50.820;4.336;2023-11-19T05:36:15;22.55;;;4.30;;
23519;SDS011;11936;50.820;4.336;2023-11-19T05:38:41;26.42;;;5.18;;
23519;SDS011;11936;50.820;4.336;2023-11-19T05:41:06;22.20;;;3.67;;
23519;SDS011;11936;50.820;4.336;2023-11-19T05:43:32;25.70;;;4.50;;
23519;SDS011;11936;50.820;4.336;2023-11-19T05:45:58;27.88;;;4.90;;
23519;SDS011;11936;50.820;4.336;2023-11-19T05:48:26;30.65;;;5.00;;
23519;SDS011;11936;50.820;4.336;2023-11-19T05:50:52;23.65;;;4.32;;
23519;SDS011;11936;50.820;4.336;2023-11-19T05:53:18;29.45;;;5.13;;
23519;SDS011;11936;50.820;4.336;2023-11-19T05:55:44;27.65;;;4.90;;
23519;SDS011;11936;50.820;4.336;2023-11-19T05:58:14;26.30;;;5.18;;
23519;SDS011;11936;50.820;4.336;2023-11-19T06:00:40;21.73;;;5.13;;
23519;SDS011;11936;50.820;4.336;2023-11-19T06:03:09;22.55;;;4.40;;
23519;SDS011;11936;50.820;4.336;2023-11-19T06:08:00;30.33;;;5.93;;
23519;SDS011;11936;50.820;4.336;2023-11-19T06:10:26;25.35;;;5.43;;
23519;SDS011;11936;50.820;4.336;2023-11-19T06:12:57;23.98;;;4.65;;
23519;SDS011;11936;50.820;4.336;2023-11-19T06:15:25;18.33;;;4.22;;
23519;SDS011;11936;50.820;4.336;2023-11-19T06:17:52;32.97;;;5.05;;
23519;SDS011;11936;50.820;4.336;2023-11-19T06:20:18;19.00;;;3.80;;
23519;SDS011;11936;50.820;4.336;2023-11-19T06:22:44;21.13;;;4.30;;
23519;SDS011;11936;50.820;4.336;2023-11-19T06:25:10;22.55;;;4.78;;
23519;SDS011;11936;50.820;4.336;2023-11-19T06:27:36;18.50;;;4.22;;
23519;SDS011;11936;50.820;4.336;2023-11-19T06:30:02;26.02;;;4.63;;
23519;SDS011;11936;50.820;4.336;2023-11-19T06:32:28;26.80;;;5.20;;
23519;SDS011;11936;50.820;4.336;2023-11-19T06:34:54;25.00;;;4.75;;
23519;SDS011;11936;50.820;4.336;2023-11-19T06:37:19;22.10;;;4.65;;
23519;SDS011;11936;50.820;4.336;2023-11-19T06:39:45;18.15;;;4.28;;
23519;SDS011;11936;50.820;4.336;2023-11-19T06:42:11;24.58;;;4.30;;
23519;SDS011;11936;50.820;4.336;2023-11-19T06:44:36;20.20;;;3.78;;
23519;SDS011;11936;50.820;4.336;2023-11-19T06:47:02;19.65;;;4.53;;
23519;SDS011;11936;50.820;4.336;2023-11-19T06:49:28;23.60;;;4.00;;
23519;SDS011;11936;50.820;4.336;2023-11-19T06:51:53;33.70;;;4.65;;
23519;SDS011;11936;50.820;4.336;2023-11-19T06:54:19;19.70;;;4.05;;
23519;SDS011;11936;50.820;4.336;2023-11-19T06:56:44;17.98;;;4.43;;
23519;SDS011;11936;50.820;4.336;2023-11-19T06:59:10;21.33;;;4.22;;
23519;SDS011;11936;50.820;4.336;2023-11-19T07:01:36;25.73;;;4.90;;
23519;SDS011;11936;50.820;4.336;2023-11-19T07:04:02;20.65;;;5.00;;
23519;SDS011;11936;50.820;4.336;2023-11-19T07:06:34;21.90;;;5.72;;
23519;SDS011;11936;50.820;4.336;2023-11-19T07:09:00;24.65;;;5.65;;
23519;SDS011;11936;50.820;4.336;2023-11-19T07:11:34;23.15;;;4.68;;
23519;SDS011;11936;50.820;4.336;2023-11-19T07:14:04;22.85;;;3.95;;
23519;SDS011;11936;50.820;4.336;2023-11-19T07:16:31;25.30;;;4.28;;
23519;SDS011;11936;50.820;4.336;2023-11-19T07:18:57;28.65;;;4.82;;
23519;SDS011;11936;50.820;4.336;2023-11-19T07:21:24;32.35;;;4.75;;
23519;SDS011;11936;50.820;4.336;2023-11-19T07:23:50;21.23;;;4.93;;
23519;SDS011;11936;50.820;4.336;2023-11-19T07:26:17;22.35;;;3.92;;
23519;SDS011;11936;50.820;4.336;2023-11-19T07:28:42;18.63;;;4.10;;
23519;SDS011;11936;50.820;4.336;2023-11-19T07:31:10;26.10;;;5.40;;
23519;SDS011;11936;50.820;4.336;2023-11-19T07:33:35;28.63;;;4.70;;
23519;SDS011;11936;50.820;4.336;2023-11-19T07:36:01;20.23;;;3.85;;
23519;SDS011;11936;50.820;4.336;2023-11-19T07:38:27;23.23;;;4.43;;
23519;SDS011;11936;50.820;4.336;2023-11-19T07:40:52;22.58;;;4.30;;
23519;SDS011;11936;50.820;4.336;2023-11-19T07:43:18;27.40;;;4.50;;
23519;SDS011;11936;50.820;4.336;2023-11-19T07:45:44;34.35;;;5.07;;
23519;SDS011;11936;50.820;4.336;2023-11-19T07:48:10;24.13;;;4.50;;
23519;SDS011;11936;50.820;4.336;2023-11-19T07:50:38;22.52;;;4.43;;
23519;SDS011;11936;50.820;4.336;2023-11-19T07:53:05;17.77;;;4.05;;
23519;SDS011;11936;50.820;4.336;2023-11-19T07:55:32;12.57;;;3.50;;
23519;SDS011;11936;50.820;4.336;2023-11-19T07:57:58;23.15;;;3.92;;
23519;SDS011;11936;50.820;4.336;2023-11-19T08:00:23;22.17;;;4.57;;
23519;SDS011;11936;50.820;4.336;2023-11-19T08:02:49;31.80;;;5.47;;
23519;SDS011;11936;50.820;4.336;2023-11-19T08:05:15;20.00;;;5.18;;
23519;SDS011;11936;50.820;4.336;2023-11-19T08:07:40;34.63;;;5.82;;
23519;SDS011;11936;50.820;4.336;2023-11-19T08:10:06;19.75;;;3.92;;
23519;SDS011;11936;50.820;4.336;2023-11-19T08:12:35;26.58;;;5.40;;
23519;SDS011;11936;50.820;4.336;2023-11-19T08:15:01;21.52;;;4.78;;
23519;SDS011;11936;50.820;4.336;2023-11-19T08:17:27;17.92;;;4.15;;
23519;SDS011;11936;50.820;4.336;2023-11-19T08:19:53;23.13;;;4.20;;
23519;SDS011;11936;50.820;4.336;2023-11-19T08:22:18;25.40;;;4.63;;
23519;SDS011;11936;50.820;4.336;2023-11-19T08:24:44;18.95;;;3.85;;
23519;SDS011;11936;50.820;4.336;2023-11-19T08:27:10;26.15;;;4.95;;
23519;SDS011;11936;50.820;4.336;2023-11-19T08:29:35;17.42;;;3.92;;
23519;SDS011;11936;50.820;4.336;2023-11-19T08:32:01;18.63;;;3.67;;
23519;SDS011;11936;50.820;4.336;2023-11-19T08:34:28;17.33;;;3.58;;
23519;SDS011;11936;50.820;4.336;2023-11-19T08:36:54;27.27;;;4.93;;
23519;SDS011;11936;50.820;4.336;2023-11-19T08:39:20;20.63;;;4.15;;
23519;SDS011;11936;50.820;4.336;2023-11-19T08:41:47;16.75;;;4.30;;
23519;SDS011;11936;50.820;4.336;2023-11-19T08:44:13;27.17;;;4.38;;
23519;SDS011;11936;50.820;4.336;2023-11-19T08:46:39;27.90;;;4.07;;
23519;SDS011;11936;50.820;4.336;2023-11-19T08:49:10;23.80;;;4.45;;
23519;SDS011;11936;50.820;4.336;2023-11-19T08:51:36;19.10;;;4.07;;
23519;SDS011;11936;50.820;4.336;2023-11-19T08:54:02;16.67;;;4.35;;
23519;SDS011;11936;50.820;4.336;2023-11-19T08:56:27;22.00;;;4.32;;
23519;SDS011;11936;50.820;4.336;2023-11-19T08:58:57;13.98;;;3.47;;
23519;SDS011;11936;50.820;4.336;2023-11-19T09:01:23;24.92;;;4.70;;
23519;SDS011;11936;50.820;4.336;2023-11-19T09:03:49;22.98;;;4.10;;
23519;SDS011;11936;50.820;4.336;2023-11-19T09:06:15;18.30;;;4.35;;
23519;SDS011;11936;50.820;4.336;2023-11-19T09:08:42;27.02;;;4.47;;
23519;SDS011;11936;50.820;4.336;2023-11-19T09:11:08;21.13;;;4.30;;
23519;SDS011;11936;50.820;4.336;2023-11-19T09:13:34;22.60;;;4.68;;
23519;SDS011;11936;50.820;4.336;2023-11-19T09:16:00;22.42;;;5.43;;
23519;SDS011;11936;50.820;4.336;2023-11-19T09:18:29;26.67;;;3.95;;
23519;SDS011;11936;50.820;4.336;2023-11-19T09:20:55;18.70;;;3.60;;
23519;SDS011;11936;50.820;4.336;2023-11-19T09:23:21;17.52;;;3.40;;
23519;SDS011;11936;50.820;4.336;2023-11-19T09:25:46;22.48;;;4.65;;
23519;SDS011;11936;50.820;4.336;2023-11-19T09:28:12;23.00;;;3.83;;
23519;SDS011;11936;50.820;4.336;2023-11-19T09:30:39;21.60;;;3.78;;
23519;SDS011;11936;50.820;4.336;2023-11-19T09:33:04;20.30;;;3.80;;
23519;SDS011;11936;50.820;4.336;2023-11-19T09:36:07;16.65;;;3.92;;
23519;SDS011;11936;50.820;4.336;2023-11-19T09:38:33;17.25;;;4.38;;
23519;SDS011;11936;50.820;4.336;2023-11-19T09:40:59;23.63;;;3.92;;
23519;SDS011;11936;50.820;4.336;2023-11-19T09:43:27;15.30;;;3.35;;
23519;SDS011;11936;50.820;4.336;2023-11-19T09:45:53;21.23;;;4.35;;
23519;SDS011;11936;50.820;4.336;2023-11-19T09:48:21;16.85;;;4.75;;
23519;SDS011;11936;50.820;4.336;2023-11-19T09:50:49;17.50;;;4.15;;
23519;SDS011;11936;50.820;4.336;2023-11-19T09:53:16;23.88;;;4.05;;
23519;SDS011;11936;50.820;4.336;2023-11-19T09:55:45;18.60;;;3.63;;
23519;SDS011;11936;50.820;4.336;2023-11-19T09:58:12;19.85;;;3.72;;
23519;SDS011;11936;50.820;4.336;2023-11-19T10:00:40;25.48;;;4.50;;
23519;SDS011;11936;50.820;4.336;2023-11-19T10:03:06;18.58;;;3.63;;
23519;SDS011;11936;50.820;4.336;2023-11-19T10:05:34;14.88;;;3.35;;
23519;SDS011;11936;50.820;4.336;2023-11-19T10:08:01;16.63;;;3.72;;
23519;SDS011;11936;50.820;4.336;2023-11-19T10:10:28;20.27;;;3.58;;
23519;SDS011;11936;50.820;4.336;2023-11-19T10:12:53;21.80;;;4.13;;
23519;SDS011;11936;50.820;4.336;2023-11-19T10:15:20;16.10;;;3.03;;
23519;SDS011;11936;50.820;4.336;2023-11-19T10:17:49;15.77;;;3.85;;
23519;SDS011;11936;50.820;4.336;2023-11-19T10:20:14;17.33;;;3.65;;
23519;SDS011;11936;50.820;4.336;2023-11-19T10:22:40;29.80;;;4.45;;
23519;SDS011;11936;50.820;4.336;2023-11-19T10:25:27;17.95;;;4.03;;
23519;SDS011;11936;50.820;4.336;2023-11-19T10:27:52;16.27;;;3.97;;
23519;SDS011;11936;50.820;4.336;2023-11-19T10:30:22;13.98;;;3.65;;
23519;SDS011;11936;50.820;4.336;2023-11-19T10:33:02;23.10;;;3.92;;
23519;SDS011;11936;50.820;4.336;2023-11-19T10:35:32;20.10;;;4.00;;
23519;SDS011;11936;50.820;4.336;2023-11-19T10:37:59;15.95;;;4.15;;
23519;SDS011;11936;50.820;4.336;2023-11-19T10:40:37;20.55;;;4.05;;
23519;SDS011;11936;50.820;4.336;2023-11-19T10:43:04;13.10;;;3.13;;
23519;SDS011;11936;50.820;4.336;2023-11-19T10:45:31;18.23;;;3.63;;
23519;SDS011;11936;50.820;4.336;2023-11-19T10:47:58;13.65;;;3.15;;
23519;SDS011;11936;50.820;4.336;2023-11-19T10:50:24;15.48;;;3.70;;
23519;SDS011;11936;50.820;4.336;2023-11-19T10:52:52;15.90;;;3.40;;
23519;SDS011;11936;50.820;4.336;2023-11-19T10:55:22;12.07;;;3.33;;
23519;SDS011;11936;50.820;4.336;2023-11-19T10:57:53;17.58;;;4.03;;
23519;SDS011;11936;50.820;4.336;2023-11-19T11:00:23;16.23;;;4.10;;
23519;SDS011;11936;50.820;4.336;2023-11-19T11:02:50;19.75;;;4.80;;
23519;SDS011;11936;50.820;4.336;2023-11-19T11:05:20;11.98;;;3.95;;
23519;SDS011;11936;50.820;4.336;2023-11-19T11:07:47;21.48;;;3.85;;
23519;SDS011;11936;50.820;4.336;2023-11-19T11:10:14;21.42;;;3.85;;
23519;SDS011;11936;50.820;4.336;2023-11-19T11:12:43;15.10;;;3.67;;
23519;SDS011;11936;50.820;4.336;2023-11-19T11:15:10;28.35;;;9.88;;
23519;SDS011;11936;50.820;4.336;2023-11-19T11:17:40;20.35;;;4.43;;
23519;SDS011;11936;50.820;4.336;2023-11-19T11:20:08;18.92;;;4.43;;
23519;SDS011;11936;50.820;4.336;2023-11-19T11:22:39;17.63;;;3.80;;
23519;SDS011;11936;50.820;4.336;2023-11-19T11:31:36;20.98;;;4.30;;
23519;SDS011;11936;50.820;4.336;2023-11-19T11:34:08;15.57;;;3.75;;
23519;SDS011;11936;50.820;4.336;2023-11-19T11:39:33;19.27;;;4.28;;
23519;SDS011;11936;50.820;4.336;2023-11-19T11:44:57;24.33;;;4.53;;
23519;SDS011;11936;50.820;4.336;2023-11-19T11:50:09;26.02;;;3.65;;
23519;SDS011;11936;50.820;4.336;2023-11-19T11:55:29;12.82;;;3.17;;
23519;SDS011;11936;50.820;4.336;2023-11-19T11:58:01;21.77;;;3.80;;
23519;SDS011;11936;50.820;4.336;2023-11-19T12:00:28;22.90;;;4.25;;
23519;SDS011;11936;50.820;4.336;2023-11-19T12:05:22;17.25;;;3.33;;
23519;SDS011;11936;50.820;4.336;2023-11-19T12:07:54;15.63;;;3.88;;
23519;SDS011;11936;50.820;4.336;2023-11-19T12:10:20;21.38;;;4.28;;
23519;SDS011;11936;50.820;4.336;2023-11-19T12:12:47;16.13;;;3.65;;
23519;SDS011;11936;50.820;4.336;2023-11-19T12:15:12;17.65;;;3.85;;
23519;SDS011;11936;50.820;4.336;2023-11-19T12:17:49;9.35;;;3.10;;
23519;SDS011;11936;50.820;4.336;2023-11-19T12:20:16;17.27;;;3.50;;
23519;SDS011;11936;50.820;4.336;2023-11-19T12:22:44;13.07;;;3.08;;
23519;SDS011;11936;50.820;4.336;2023-11-19T12:25:11;19.87;;;3.93;;
23519;SDS011;11936;50.820;4.336;2023-11-19T12:27:44;12.70;;;3.72;;
23519;SDS011;11936;50.820;4.336;2023-11-19T12:30:11;15.20;;;4.07;;
23519;SDS011;11936;50.820;4.336;2023-11-19T12:32:44;16.40;;;3.33;;
23519;SDS011;11936;50.820;4.336;2023-11-19T12:35:11;15.00;;;3.60;;
23519;SDS011;11936;50.820;4.336;2023-11-19T12:37:40;14.02;;;3.80;;
23519;SDS011;11936;50.820;4.336;2023-11-19T12:40:17;15.95;;;3.47;;
23519;SDS011;11936;50.820;4.336;2023-11-19T12:42:50;16.63;;;4.18;;
23519;SDS011;11936;50.820;4.336;2023-11-19T12:45:18;24.42;;;4.40;;
23519;SDS011;11936;50.820;4.336;2023-11-19T12:47:45;20.30;;;4.03;;
23519;SDS011;11936;50.820;4.336;2023-11-19T12:50:17;24.38;;;4.43;;
23519;SDS011;11936;50.820;4.336;2023-11-19T12:52:54;16.42;;;3.67;;
23519;SDS011;11936;50.820;4.336;2023-11-19T12:55:25;20.05;;;4.85;;
23519;SDS011;11936;50.820;4.336;2023-11-19T12:57:52;26.50;;;4.55;;
23519;SDS011;11936;50.820;4.336;2023-11-19T13:00:21;18.40;;;4.88;;
23519;SDS011;11936;50.820;4.336;2023-11-19T13:02:53;20.42;;;4.47;;
23519;SDS011;11936;50.820;4.336;2023-11-19T13:05:22;20.58;;;4.00;;
23519;SDS011;11936;50.820;4.336;2023-11-19T13:07:48;22.88;;;4.10;;
23519;SDS011;11936;50.820;4.336;2023-11-19T13:10:14;20.35;;;3.90;;
23519;SDS011;11936;50.820;4.336;2023-11-19T13:12:40;21.98;;;4.00;;
23519;SDS011;11936;50.820;4.336;2023-11-19T13:15:06;19.02;;;4.38;;
23519;SDS011;11936;50.820;4.336;2023-11-19T13:17:47;15.73;;;3.38;;
23519;SDS011;11936;50.820;4.336;2023-11-19T13:20:12;17.98;;;3.85;;
23519;SDS011;11936;50.820;4.336;2023-11-19T13:22:53;18.00;;;3.80;;
23519;SDS011;11936;50.820;4.336;2023-11-19T13:25:22;15.45;;;3.58;;
23519;SDS011;11936;50.820;4.336;2023-11-19T13:27:47;24.45;;;3.80;;
23519;SDS011;11936;50.820;4.336;2023-11-19T13:30:13;16.83;;;3.80;;
23519;SDS011;11936;50.820;4.336;2023-11-19T13:32:39;20.02;;;4.78;;
23519;SDS011;11936;50.820;4.336;2023-11-19T13:35:05;28.85;;;5.10;;
23519;SDS011;11936;50.820;4.336;2023-11-19T13:37:33;17.88;;;4.15;;
23519;SDS011;11936;50.820;4.336;2023-11-19T13:39:59;20.48;;;4.50;;
23519;SDS011;11936;50.820;4.336;2023-11-19T13:42:25;22.08;;;4.55;;
23519;SDS011;11936;50.820;4.336;2023-11-19T13:44:50;21.83;;;4.22;;
23519;SDS011;11936;50.820;4.336;2023-11-19T13:47:16;14.15;;;4.55;;
23519;SDS011;11936;50.820;4.336;2023-11-19T13:49:41;23.45;;;4.55;;
23519;SDS011;11936;50.820;4.336;2023-11-19T13:52:09;22.35;;;3.85;;
23519;SDS011;11936;50.820;4.336;2023-11-19T13:54:34;24.40;;;4.35;;
23519;SDS011;11936;50.820;4.336;2023-11-19T13:57:02;27.50;;;4.50;;
23519;SDS011;11936;50.820;4.336;2023-11-19T13:59:29;19.80;;;4.93;;
23519;SDS011;11936;50.820;4.336;2023-11-19T14:01:56;22.75;;;4.25;;
23519;SDS011;11936;50.820;4.336;2023-11-19T14:04:21;28.02;;;4.07;;
23519;SDS011;11936;50.820;4.336;2023-11-19T14:06:47;21.02;;;4.13;;
23519;SDS011;11936;50.820;4.336;2023-11-19T14:09:12;20.38;;;4.75;;
23519;SDS011;11936;50.820;4.336;2023-11-19T14:11:38;20.45;;;4.70;;
23519;SDS011;11936;50.820;4.336;2023-11-19T14:14:04;26.02;;;4.70;;
23519;SDS011;11936;50.820;4.336;2023-11-19T14:16:29;22.75;;;4.72;;
23519;SDS011;11936;50.820;4.336;2023-11-19T14:18:55;21.75;;;4.57;;
23519;SDS011;11936;50.820;4.336;2023-11-19T14:21:20;17.13;;;4.15;;
23519;SDS011;11936;50.820;4.336;2023-11-19T14:23:46;24.77;;;5.50;;
23519;SDS011;11936;50.820;4.336;2023-11-19T14:26:12;20.45;;;4.82;;
23519;SDS011;11936;50.820;4.336;2023-11-19T14:28:37;26.40;;;4.97;;
23519;SDS011;11936;50.820;4.336;2023-11-19T14:31:03;22.20;;;4.85;;
23519;SDS011;11936;50.820;4.336;2023-11-19T14:33:29;20.58;;;5.85;;
23519;SDS011;11936;50.820;4.336;2023-11-19T14:35:55;22.02;;;4.90;;
23519;SDS011;11936;50.820;4.336;2023-11-19T14:38:20;22.05;;;4.55;;
23519;SDS011;11936;50.820;4.336;2023-11-19T14:40:46;21.80;;;4.20;;
23519;SDS011;11936;50.820;4.336;2023-11-19T14:43:13;17.17;;;3.72;;
23519;SDS011;11936;50.820;4.336;2023-11-19T14:45:40;29.63;;;4.72;;
23519;SDS011;11936;50.820;4.336;2023-11-19T14:48:05;14.27;;;3.75;;
23519;SDS011;11936;50.820;4.336;2023-11-19T14:50:31;18.80;;;3.95;;
23519;SDS011;11936;50.820;4.336;2023-11-19T14:52:57;19.85;;;3.83;;
23519;SDS011;11936;50.820;4.336;2023-11-19T14:55:23;20.23;;;4.18;;
23519;SDS011;11936;50.820;4.336;2023-11-19T14:57:49;14.20;;;3.92;;
23519;SDS011;11936;50.820;4.336;2023-11-19T15:00:15;17.02;;;3.83;;
23519;SDS011;11936;50.820;4.336;2023-11-19T15:02:41;23.73;;;4.70;;